createdAt,value
2019-05-03T00:01:52.784Z,14.07
2019-05-03T00:06:57.289Z,14.87
2019-05-03T00:12:01.955Z,15.63
2019-05-03T00:17:07.511Z,16.17
2019-05-03T00:22:12.383Z,17.50
2019-05-03T00:27:16.999Z,17.17
2019-05-03T00:32:23.088Z,18.20
2019-05-03T00:37:29.084Z,16.97
2019-05-03T00:42:33.487Z,17.55
2019-05-03T00:47:37.874Z,18.60
2019-05-03T00:52:42.409Z,18.07
2019-05-03T00:57:46.702Z,19.83
2019-05-03T01:02:51.756Z,19.17
2019-05-03T01:07:56.575Z,18.70
2019-05-03T01:13:01.655Z,19.23
2019-05-03T01:18:07.792Z,17.93
2019-05-03T01:23:12.474Z,19.67
2019-05-03T01:28:17.912Z,18.63
2019-05-03T01:33:22.719Z,18.57
2019-05-03T01:38:27.224Z,18.37
2019-05-03T01:43:31.895Z,18.10
2019-05-03T01:48:37.971Z,17.33
2019-05-03T01:53:42.345Z,17.67
2019-05-03T01:58:46.745Z,18.40
2019-05-03T02:04:09.250Z,17.87
2019-05-03T02:09:44.198Z,17.33
2019-05-03T02:14:48.549Z,16.87
2019-05-03T02:19:52.922Z,16.43
2019-05-03T02:24:57.375Z,14.90
2019-05-03T02:30:03.094Z,16.07
2019-05-03T02:35:08.979Z,14.87
2019-05-03T02:40:13.953Z,14.33
2019-05-03T02:45:20.224Z,9.07
2019-05-03T02:50:26.033Z,6.83
2019-05-03T02:55:30.519Z,6.00
2019-05-03T03:01:00.405Z,5.37
2019-05-03T03:06:07.008Z,5.80
2019-05-03T03:11:11.550Z,5.40
2019-05-03T03:16:20.492Z,4.93
2019-05-03T03:21:26.040Z,6.23
2019-05-03T03:26:39.331Z,5.90
2019-05-03T03:31:58.538Z,4.70
2019-05-03T03:37:06.467Z,4.20
2019-05-03T03:42:10.395Z,4.30
2019-05-03T03:47:16.603Z,3.50
2019-05-03T03:52:25.306Z,3.77
2019-05-03T03:57:29.354Z,3.60
2019-05-03T04:02:35.466Z,4.30
2019-05-03T04:07:40.059Z,3.60
2019-05-03T04:12:45.837Z,2.97
2019-05-03T04:17:51.891Z,2.80
2019-05-03T04:22:56.432Z,2.57
2019-05-03T04:28:00.844Z,2.83
2019-05-03T04:33:06.164Z,2.83
2019-05-03T04:38:11.776Z,3.20
2019-05-03T04:43:16.691Z,3.00
2019-05-03T04:48:21.153Z,2.90
2019-05-03T04:53:26.099Z,2.97
2019-05-03T04:58:30.501Z,2.83
2019-05-03T05:03:36.201Z,3.00
2019-05-03T05:08:40.850Z,2.97
2019-05-03T05:13:45.717Z,2.90
2019-05-03T05:18:51.970Z,3.27
2019-05-03T05:23:58.032Z,2.97
2019-05-03T05:29:14.616Z,2.90
2019-05-03T05:34:19.329Z,4.30
2019-05-03T05:39:24.464Z,3.27
2019-05-03T05:44:29.037Z,3.00
2019-05-03T05:49:40.931Z,3.70
2019-05-03T05:54:46.938Z,3.30
2019-05-03T05:59:59.937Z,3.50
2019-05-03T06:05:06.131Z,3.43
2019-05-03T06:10:18.488Z,3.77
2019-05-03T06:15:42.400Z,3.77
2019-05-03T06:21:04.626Z,4.00
2019-05-03T06:26:15.649Z,3.37
2019-05-03T06:31:27.787Z,4.00
2019-05-03T06:36:32.168Z,4.30
2019-05-03T06:41:37.656Z,3.47
2019-05-03T06:46:46.401Z,2.93
2019-05-03T06:51:51.007Z,3.53
2019-05-03T06:56:55.607Z,3.03
2019-05-03T07:02:07.889Z,2.90
2019-05-03T07:07:16.453Z,2.87
2019-05-03T07:12:20.834Z,2.60
2019-05-03T07:17:25.264Z,2.60
2019-05-03T07:22:29.614Z,2.50
2019-05-03T07:27:34.956Z,2.60
2019-05-03T07:32:41.113Z,2.60
2019-05-03T07:37:45.558Z,2.70
2019-05-03T07:42:49.966Z,2.90
2019-05-03T07:47:55.816Z,2.83
2019-05-03T07:53:01.420Z,2.70
2019-05-03T07:58:10.425Z,2.93
2019-05-03T08:03:15.507Z,2.20
2019-05-03T08:08:19.985Z,2.27
2019-05-03T08:13:25.289Z,2.00
2019-05-03T08:18:29.972Z,2.17
2019-05-03T08:23:35.256Z,1.93
2019-05-03T08:28:41.099Z,2.00
2019-05-03T08:33:49.790Z,2.10
2019-05-03T08:38:56.304Z,2.50
2019-05-03T08:44:00.405Z,1.90
2019-05-03T08:49:05.287Z,2.40
2019-05-03T08:54:09.748Z,2.03
2019-05-03T08:59:26.768Z,2.20
2019-05-03T09:04:33.518Z,1.93
2019-05-03T09:09:27.908Z,1.87
2019-05-03T09:14:48.476Z,2.27
2019-05-03T09:19:54.733Z,2.47
2019-05-03T09:24:58.711Z,2.10
2019-05-03T09:30:05.069Z,2.27
2019-05-03T09:35:12.391Z,2.07
2019-05-03T09:40:16.849Z,2.63
2019-05-03T09:45:21.287Z,2.40
2019-05-03T09:50:25.823Z,2.40
2019-05-03T09:55:40.968Z,2.40
2019-05-03T10:00:45.942Z,2.10
2019-05-03T10:05:50.309Z,1.73
2019-05-03T10:11:15.539Z,1.90
2019-05-03T10:16:20.484Z,2.30
2019-05-03T10:21:26.541Z,2.00
2019-05-03T10:26:30.888Z,2.10
2019-05-03T10:31:54.569Z,2.53
2019-05-03T10:36:59.089Z,2.63
2019-05-03T10:42:04.771Z,2.40
2019-05-03T10:47:09.360Z,2.00
2019-05-03T10:52:15.039Z,2.20
2019-05-03T10:57:24.821Z,2.60
2019-05-03T11:02:30.946Z,2.13
2019-05-03T11:07:35.316Z,2.23
2019-05-03T11:12:39.678Z,2.10
2019-05-03T11:17:45.486Z,2.57
2019-05-03T11:22:50.009Z,2.10
2019-05-03T11:27:56.211Z,2.23
2019-05-03T11:33:02.234Z,2.13
2019-05-03T11:38:15.522Z,2.67
2019-05-03T11:43:21.995Z,2.40
2019-05-03T11:48:26.625Z,2.10
2019-05-03T11:53:31.081Z,2.70
2019-05-03T11:58:35.438Z,2.33
2019-05-03T12:03:41.448Z,1.77
2019-05-03T12:08:45.781Z,2.00
2019-05-03T12:14:02.389Z,1.90
2019-05-03T12:19:13.256Z,1.77
2019-05-03T12:24:07.214Z,2.70
2019-05-03T12:29:11.982Z,2.03
2019-05-03T12:34:16.382Z,2.30
2019-05-03T12:39:26.748Z,2.27
2019-05-03T12:44:26.969Z,2.20
2019-05-03T12:49:31.327Z,2.30
2019-05-03T12:54:36.649Z,1.90
2019-05-03T12:59:51.249Z,2.00
2019-05-03T13:04:55.620Z,2.30
2019-05-03T13:10:00.017Z,1.93
2019-05-03T13:15:08.498Z,1.90
2019-05-03T13:20:14.996Z,2.10
2019-05-03T13:25:19.402Z,2.00
2019-05-03T13:30:25.068Z,2.00
2019-05-03T13:35:29.780Z,2.00
2019-05-03T13:40:35.938Z,2.27
2019-05-03T13:45:40.525Z,1.93
2019-05-03T13:50:44.887Z,1.80
2019-05-03T13:55:49.250Z,2.07
2019-05-03T14:00:54.966Z,1.90
2019-05-03T14:06:00.639Z,2.30
2019-05-03T14:11:05.491Z,1.73
2019-05-03T14:16:10.898Z,1.77
2019-05-03T14:21:17.048Z,1.80
2019-05-03T14:26:21.511Z,2.00
2019-05-03T14:31:25.863Z,2.00
2019-05-03T14:36:30.207Z,1.63
2019-05-03T14:41:34.614Z,1.80
2019-05-03T14:46:39.062Z,2.00
2019-05-03T14:51:45.408Z,1.90
2019-05-03T14:56:51.129Z,2.47
2019-05-03T15:01:57.120Z,2.10
2019-05-03T15:07:01.467Z,1.90
2019-05-03T15:12:06.015Z,2.47
2019-05-03T15:17:10.426Z,1.90
2019-05-03T15:22:14.862Z,1.93
2019-05-03T15:27:20.529Z,2.00
2019-05-03T15:32:24.916Z,1.70
2019-05-03T15:37:29.321Z,1.90
2019-05-03T15:42:34.493Z,2.03
2019-05-03T15:47:42.905Z,1.77
2019-05-03T15:52:47.259Z,1.70
2019-05-03T15:57:51.640Z,1.87
2019-05-03T16:03:07.488Z,1.83
2019-05-03T16:08:02.126Z,2.00
2019-05-03T16:13:06.883Z,1.70
2019-05-03T16:18:11.262Z,2.03
2019-05-03T16:23:15.721Z,2.02
2019-05-03T16:28:24.905Z,2.20
2019-05-03T16:33:29.357Z,1.90
2019-05-03T16:38:35.430Z,1.93
2019-05-03T16:43:40.006Z,1.87
2019-05-03T16:48:44.911Z,2.27
2019-05-03T16:53:49.391Z,1.87
2019-05-03T16:58:54.997Z,1.87
2019-05-03T17:04:01.125Z,2.03
2019-05-03T17:09:10.940Z,1.67
2019-05-03T17:14:16.937Z,2.23
2019-05-03T17:19:21.291Z,1.50
2019-05-03T17:24:25.832Z,1.90
2019-05-03T17:29:30.208Z,2.37
2019-05-03T17:34:34.808Z,1.85
2019-05-03T17:39:57.365Z,2.57
2019-05-03T17:45:01.994Z,1.97
2019-05-03T17:50:07.179Z,2.30
2019-05-03T17:55:21.953Z,2.30
2019-05-03T18:00:30.711Z,1.80
2019-05-03T18:05:44.823Z,2.20
2019-05-03T18:10:55.085Z,2.00
2019-05-03T18:15:59.485Z,1.80
2019-05-03T18:21:04.784Z,2.40
2019-05-03T18:26:09.409Z,2.27
2019-05-03T18:31:14.634Z,2.60
2019-05-03T18:36:19.073Z,2.13
2019-05-03T18:41:25.241Z,2.60
2019-05-03T18:46:31.125Z,2.70
2019-05-03T18:51:36.120Z,2.50
2019-05-03T18:56:40.502Z,2.30
2019-05-03T19:01:45.206Z,2.23
2019-05-03T19:07:01.999Z,2.40
2019-05-03T19:11:58.620Z,2.40
2019-05-03T19:17:07.339Z,2.73
2019-05-03T19:22:11.859Z,3.20
2019-05-03T19:27:16.236Z,3.50
2019-05-03T19:32:20.617Z,2.93
2019-05-03T19:37:25.340Z,3.07
2019-05-03T19:42:29.787Z,3.10
2019-05-03T19:47:35.323Z,2.90
2019-05-03T19:52:57.379Z,2.90
2019-05-03T19:58:01.765Z,3.03
2019-05-03T20:03:11.280Z,3.00
2019-05-03T20:08:24.657Z,2.90
2019-05-03T20:13:34.644Z,3.07
2019-05-03T20:18:35.660Z,3.23
2019-05-03T20:23:40.773Z,3.40
2019-05-03T20:28:45.290Z,3.30
2019-05-03T20:33:49.695Z,3.93
2019-05-03T20:38:55.034Z,3.50
2019-05-03T20:44:05.359Z,3.60
2019-05-03T20:49:12.620Z,3.83
2019-05-03T20:54:16.987Z,3.80
2019-05-03T20:59:21.346Z,3.57
2019-05-03T21:04:25.734Z,3.47
2019-05-03T21:09:30.102Z,3.30
2019-05-03T21:14:35.066Z,3.50
2019-05-03T21:19:41.257Z,3.33
2019-05-03T21:24:47.239Z,3.93
2019-05-03T21:29:54.837Z,3.67
2019-05-03T21:34:58.312Z,3.70
2019-05-03T21:40:02.665Z,3.47
2019-05-03T21:45:08.147Z,4.53
2019-05-03T21:50:14.734Z,4.20
2019-05-03T21:55:19.111Z,4.07
2019-05-03T22:00:25.422Z,3.77
2019-05-03T22:05:33.062Z,4.10
2019-05-03T22:10:37.507Z,4.17
2019-05-03T22:15:43.510Z,4.50
2019-05-03T22:20:50.634Z,4.13
2019-05-03T22:25:56.916Z,4.67
2019-05-03T22:31:01.219Z,4.67
2019-05-03T22:36:08.824Z,4.93
2019-05-03T22:41:12.526Z,4.13
2019-05-03T22:46:18.791Z,4.43
2019-05-03T22:51:24.444Z,4.43
2019-05-03T22:56:29.022Z,3.97
2019-05-03T23:01:35.250Z,3.70
2019-05-03T23:06:39.466Z,4.20
2019-05-03T23:11:44.743Z,3.57
2019-05-03T23:16:49.413Z,3.92
2019-05-03T23:21:55.502Z,4.03
2019-05-03T23:27:00.042Z,3.90
2019-05-03T23:32:04.824Z,3.55
2019-05-03T23:37:09.356Z,3.37
2019-05-03T23:42:15.503Z,3.70
2019-05-03T23:47:25.221Z,3.80
2019-05-03T23:52:32.410Z,4.07
2019-05-03T23:57:36.754Z,4.20
